Time;durP1;ratioP1;P1;durP2;ratioP2;P2;SDS_P1;SDS_P2;PMS_P1;PMS_P2;Temp;Humidity;BMP_temperature;BMP_pressure;BME280_temperature;BME280_humidity;BME280_pressure;Samples;Min_cycle;Max_cycle;Signal;HPM_P1;HPM_P2
2023/01/14 00:00:17;;;;;;;6.15;1.70;;;14.80;96.90;;;;;;5050825;28;20040;-70
2023/01/14 00:02:43;;;;;;;5.00;1.67;;;15.00;97.00;;;;;;5052867;28;20064;-71
2023/01/14 00:05:09;;;;;;;5.82;1.70;;;;;;;;;;5051617;28;20044;-71
2023/01/14 00:07:35;;;;;;;3.65;1.20;;;15.00;96.90;;;;;;5038576;28;20045;-72
2023/01/14 00:10:01;;;;;;;6.07;1.40;;;14.80;97.00;;;;;;5042844;28;20046;-70
2023/01/14 00:12:27;;;;;;;4.50;1.23;;;15.00;96.90;;;;;;5036814;28;20037;-71
2023/01/14 00:14:52;;;;;;;5.95;1.27;;;15.30;97.00;;;;;;5036813;28;20042;-72
2023/01/14 00:17:18;;;;;;;5.25;1.30;;;;;;;;;;5036814;28;20037;-70
2023/01/14 00:19:44;;;;;;;5.30;1.63;;;15.20;97.00;;;;;;5048502;28;20057;-69
2023/01/14 00:22:10;;;;;;;4.75;1.50;;;15.00;97.00;;;;;;5057140;28;20128;-71
2023/01/14 00:24:36;;;;;;;4.93;1.30;;;15.00;97.00;;;;;;5035227;28;20046;-71
2023/01/14 00:27:02;;;;;;;4.10;1.02;;;;;;;;;;5027737;28;20453;-70
2023/01/14 00:29:30;;;;;;;5.43;1.30;;;15.10;97.00;;;;;;5042127;28;20124;-72
2023/01/14 00:31:57;;;;;;;3.22;0.98;;;14.90;95.50;;;;;;5046061;28;20425;-71
2023/01/14 00:34:26;;;;;;;3.53;1.20;;;14.80;97.00;;;;;;5056050;28;20060;-71
2023/01/14 00:36:51;;;;;;;4.53;1.30;;;15.10;97.10;;;;;;5055230;28;20049;-71
2023/01/14 00:39:17;;;;;;;2.50;1.10;;;15.30;96.40;;;;;;5044151;28;20146;-72
2023/01/14 00:41:43;;;;;;;4.63;1.33;;;14.90;97.00;;;;;;5037907;28;20407;-71
2023/01/14 00:44:09;;;;;;;5.00;1.35;;;15.10;95.90;;;;;;5037834;28;20044;-71
2023/01/14 00:46:36;;;;;;;4.50;1.40;;;;;;;;;;5054121;28;20127;-72
2023/01/14 00:49:03;;;;;;;3.40;1.08;;;14.90;97.00;;;;;;5053986;28;20473;-71
2023/01/14 00:51:29;;;;;;;3.67;1.25;;;;;;;;;;5055191;28;20102;-72
2023/01/14 00:53:55;;;;;;;4.38;1.15;;;15.20;95.90;;;;;;5055859;28;20048;-71
2023/01/14 00:56:21;;;;;;;4.72;1.67;;;15.00;95.90;;;;;;5054376;28;20048;-71
2023/01/14 00:58:47;;;;;;;4.53;1.25;;;14.90;97.00;;;;;;5050427;28;20115;-70
2023/01/14 01:01:13;;;;;;;7.05;1.30;;;15.30;97.10;;;;;;5038514;28;20050;-71
2023/01/14 01:03:41;;;;;;;5.07;1.13;;;15.00;97.00;;;;;;5035971;28;20387;-71
2023/01/14 01:06:06;;;;;;;3.53;1.08;;;15.00;97.00;;;;;;5035913;28;20052;-69
2023/01/14 01:08:32;;;;;;;3.75;1.20;;;14.90;96.90;;;;;;5035197;28;20045;-70
2023/01/14 01:10:59;;;;;;;7.65;1.92;;;;;;;;;;5055720;28;20094;-71
2023/01/14 01:13:24;;;;;;;5.00;1.42;;;14.90;96.90;;;;;;5067724;28;20056;-70
2023/01/14 01:15:51;;;;;;;8.45;1.55;;;;;;;;;;5041872;28;20037;-71
2023/01/14 01:18:17;;;;;;;7.45;2.33;;;;;;;;;;5044087;28;20049;-71
2023/01/14 01:20:43;;;;;;;6.72;2.17;;;14.90;96.90;;;;;;5050329;28;20055;-71
2023/01/14 01:23:12;;;;;;;6.03;1.75;;;14.70;96.90;;;;;;5055650;28;20123;-71
2023/01/14 01:25:38;;;;;;;7.28;1.90;;;14.70;96.80;;;;;;5055371;28;20047;-71
2023/01/14 01:28:04;;;;;;;7.78;1.85;;;14.90;96.80;;;;;;5054704;28;20379;-70
2023/01/14 01:30:30;;;;;;;6.05;1.42;;;;;;;;;;5047293;28;20041;-72
2023/01/14 01:32:56;;;;;;;8.77;2.50;;;15.00;95.60;;;;;;5053642;28;20119;-71
2023/01/14 01:35:22;;;;;;;6.47;1.60;;;15.10;96.90;;;;;;5042356;28;20086;-71
2023/01/14 01:37:48;;;;;;;7.88;1.58;;;15.10;96.90;;;;;;5034038;28;20403;-72
2023/01/14 01:40:14;;;;;;;6.40;1.75;;;15.00;96.80;;;;;;5037232;28;20044;-71
2023/01/14 01:43:00;;;;;;;10.85;2.13;;;15.20;96.90;;;;;;5054886;28;20040;-72
2023/01/14 01:45:32;;;;;;;6.70;1.63;;;15.00;96.80;;;;;;5041430;28;20045;-72
2023/01/14 01:48:14;;;;;;;8.18;2.00;;;15.00;96.70;;;;;;5034899;28;20048;-72
2023/01/14 01:50:41;;;;;;;7.18;1.85;;;14.90;96.70;;;;;;5039253;28;20076;-70
2023/01/14 01:53:07;;;;;;;6.57;1.63;;;15.00;96.80;;;;;;5036190;28;20372;-72
2023/01/14 01:55:34;;;;;;;8.05;2.15;;;;;;;;;;5033815;28;20041;-71
2023/01/14 01:58:01;;;;;;;6.97;2.03;;;;;;;;;;5034794;28;20049;-72
2023/01/14 02:00:27;;;;;;;11.07;2.50;;;;;;;;;;5042580;28;20049;-73
2023/01/14 02:02:59;;;;;;;10.18;2.38;;;15.20;95.60;;;;;;5053158;28;20048;-72
2023/01/14 02:05:25;;;;;;;8.45;1.83;;;;;;;;;;5037558;28;20052;-72
2023/01/14 02:07:51;;;;;;;6.13;1.60;;;;;;;;;;5054392;28;20507;-72
2023/01/14 02:10:17;;;;;;;8.30;2.45;;;14.60;96.60;;;;;;5054126;28;20048;-71
2023/01/14 02:13:10;;;;;;;8.13;1.92;;;14.90;96.70;;;;;;5053719;28;20402;-72
2023/01/14 02:15:58;;;;;;;9.48;2.03;;;14.90;96.70;;;;;;5048322;28;20446;-72
2023/01/14 02:19:03;;;;;;;8.68;2.65;;;14.90;96.60;;;;;;5027844;28;20061;-70
2023/01/14 02:21:30;;;;;;;11.55;2.45;;;;;;;;;;5013075;28;20046;-70
2023/01/14 02:24:20;;;;;;;7.50;2.60;;;14.80;94.70;;;;;;5054306;28;20119;-70
2023/01/14 02:27:03;;;;;;;8.07;1.90;;;14.90;95.40;;;;;;5049107;28;20044;-70
2023/01/14 02:29:46;;;;;;;10.00;2.65;;;14.80;96.50;;;;;;5039585;28;20442;-72
2023/01/14 02:32:23;;;;;;;8.33;1.70;;;14.70;96.40;;;;;;5051808;28;20060;-71
2023/01/14 02:35:18;;;;;;;9.35;2.20;;;14.70;95.30;;;;;;5053024;28;20132;-71
2023/01/14 02:37:59;;;;;;;8.85;1.98;;;14.90;96.50;;;;;;5049972;28;20124;-71
2023/01/14 02:40:42;;;;;;;8.88;2.55;;;14.70;95.30;;;;;;5050825;28;20491;-70
2023/01/14 02:46:49;;;;;;;9.73;2.10;;;14.80;95.30;;;;;;5052673;28;20049;-71
2023/01/14 02:49:17;;;;;;;9.45;2.03;;;14.80;95.10;;;;;;5039175;28;20402;-72
2023/01/14 02:51:45;;;;;;;10.90;2.53;;;14.90;96.60;;;;;;5052998;28;20045;-66
2023/01/14 02:54:11;;;;;;;8.70;2.33;;;14.90;96.50;;;;;;5051943;28;20037;-71
2023/01/14 02:56:37;;;;;;;7.95;2.38;;;15.00;96.50;;;;;;5037171;28;20049;-70
2023/01/14 02:59:06;;;;;;;9.55;2.38;;;15.00;96.40;;;;;;5039356;28;20041;-70
2023/01/14 03:02:12;;;;;;;9.05;2.45;;;15.00;96.40;;;;;;5032204;28;20042;-72
2023/01/14 03:05:25;;;;;;;9.75;2.30;;;14.80;96.30;;;;;;5003409;28;20046;-71
2023/01/14 03:07:57;;;;;;;7.80;2.40;;;15.20;96.50;;;;;;5006580;28;20061;-71
2023/01/14 03:10:34;;;;;;;8.45;2.45;;;14.80;96.30;;;;;;5010926;28;20053;-70
2023/01/14 03:13:18;;;;;;;11.50;2.30;;;;;;;;;;4963916;28;20057;-70
2023/01/14 03:15:52;;;;;;;7.28;2.53;;;14.80;96.30;;;;;;4995039;28;20081;-71
2023/01/14 03:18:23;;;;;;;7.95;2.47;;;14.80;96.30;;;;;;5011204;28;20056;-70
2023/01/14 03:20:55;;;;;;;12.35;2.65;;;14.50;96.20;;;;;;5011496;28;20050;-71
2023/01/14 03:23:22;;;;;;;8.30;2.35;;;14.70;96.20;;;;;;4994275;28;20120;-70
2023/01/14 03:25:48;;;;;;;8.88;2.00;;;15.00;96.30;;;;;;4986150;28;20116;-71
2023/01/14 03:28:17;;;;;;;9.98;2.20;;;14.60;94.80;;;;;;4991882;28;20447;-71
2023/01/14 03:30:45;;;;;;;8.13;2.30;;;14.90;96.40;;;;;;4991913;28;20057;-70
2023/01/14 03:33:15;;;;;;;9.15;2.25;;;14.80;96.20;;;;;;4992043;28;20094;-70
2023/01/14 03:35:41;;;;;;;7.65;2.00;;;14.90;96.20;;;;;;4994691;28;20493;-70
2023/01/14 03:38:11;;;;;;;10.18;2.92;;;14.80;96.10;;;;;;4998338;28;20100;-71
2023/01/14 03:40:37;;;;;;;12.52;2.60;;;14.70;96.10;;;;;;5024800;28;20140;-71
2023/01/14 03:43:26;;;;;;;9.93;2.47;;;14.80;94.80;;;;;;5014497;28;20045;-71
2023/01/14 03:45:52;;;;;;;9.10;2.13;;;14.60;96.10;;;;;;5022715;28;20574;-71
2023/01/14 03:48:17;;;;;;;11.23;2.47;;;14.60;96.10;;;;;;5036289;28;20085;-72
2023/01/14 03:50:53;;;;;;;9.82;2.05;;;14.90;95.10;;;;;;5029611;28;20520;-72
2023/01/14 03:53:52;;;;;;;9.00;2.33;;;14.60;96.00;;;;;;5022746;28;20149;-72
2023/01/14 03:56:18;;;;;;;9.60;2.20;;;;;;;;;;5029259;28;20049;-71
2023/01/14 03:58:49;;;;;;;8.73;2.63;;;14.70;94.80;;;;;;5036275;28;20081;-71
2023/01/14 04:01:26;;;;;;;10.60;2.65;;;14.60;94.80;;;;;;5036512;28;20449;-71
2023/01/14 04:03:53;;;;;;;10.98;2.20;;;;;;;;;;5020570;28;20081;-70
2023/01/14 04:06:18;;;;;;;11.73;2.47;;;14.60;94.80;;;;;;5035374;28;20053;-70
2023/01/14 04:08:44;;;;;;;11.05;2.60;;;;;;;;;;5021658;28;20042;-71
2023/01/14 04:11:10;;;;;;;11.90;2.63;;;14.80;96.00;;;;;;5026959;28;20038;-70
2023/01/14 04:16:21;;;;;;;9.63;1.90;;;;;;;;;;5036204;28;20080;-73
2023/01/14 04:18:47;;;;;;;11.55;2.83;;;14.70;96.00;;;;;;5034963;28;20125;-71
2023/01/14 04:21:13;;;;;;;8.20;1.95;;;15.00;94.30;;;;;;5036101;28;20128;-71
2023/01/14 04:23:39;;;;;;;9.02;2.88;;;;;;;;;;5036590;28;20403;-70
2023/01/14 04:26:05;;;;;;;9.65;2.38;;;14.80;96.00;;;;;;5032685;28;20076;-71
2023/01/14 04:28:31;;;;;;;9.13;2.50;;;14.70;95.90;;;;;;5032564;28;20136;-70
2023/01/14 04:30:56;;;;;;;8.40;2.13;;;14.70;95.90;;;;;;5015427;28;20056;-72
2023/01/14 04:33:22;;;;;;;10.73;3.35;;;14.60;95.90;;;;;;5016744;28;20041;-71
2023/01/14 04:35:48;;;;;;;10.13;2.30;;;;;;;;;;5018085;28;20055;-71
2023/01/14 04:38:15;;;;;;;12.18;2.50;;;14.70;95.90;;;;;;5051907;28;20410;-71
2023/01/14 04:40:41;;;;;;;11.80;2.58;;;14.20;95.80;;;;;;5056584;28;20130;-70
2023/01/14 04:43:08;;;;;;;11.60;2.95;;;14.60;95.80;;;;;;5036324;28;20045;-72
2023/01/14 04:45:35;;;;;;;11.98;2.47;;;;;;;;;;5041553;28;20128;-71
2023/01/14 04:48:01;;;;;;;10.10;3.15;;;;;;;;;;5047569;28;20048;-70
2023/01/14 04:50:33;;;;;;;9.57;2.83;;;14.90;95.90;;;;;;5055000;28;20107;-71
2023/01/14 04:53:06;;;;;;;8.95;2.50;;;14.60;96.00;;;;;;5056367;28;20053;-70
2023/01/14 04:55:33;;;;;;;10.90;2.45;;;14.90;95.80;;;;;;5055023;28;20049;-70
2023/01/14 04:57:59;;;;;;;10.57;3.03;;;;;;;;;;5029815;28;20045;-70
2023/01/14 05:00:25;;;;;;;10.02;2.35;;;14.70;95.70;;;;;;5046878;28;20044;-71
2023/01/14 05:02:51;;;;;;;11.18;2.67;;;;;;;;;;5036093;28;20058;-72
2023/01/14 05:05:17;;;;;;;11.00;2.17;;;14.50;94.40;;;;;;5042882;28;20051;-71
2023/01/14 05:07:42;;;;;;;10.45;2.30;;;14.60;95.70;;;;;;5053921;28;20394;-70
2023/01/14 05:10:09;;;;;;;10.93;2.88;;;14.50;95.60;;;;;;5055891;28;20514;-71
2023/01/14 05:12:35;;;;;;;13.45;2.53;;;;;;;;;;5051494;28;20379;-68
2023/01/14 05:15:01;;;;;;;9.35;2.15;;;;;;;;;;5036077;28;20479;-72
2023/01/14 05:17:27;;;;;;;9.43;2.33;;;14.50;95.60;;;;;;5053319;28;20121;-71
2023/01/14 05:19:52;;;;;;;9.90;2.42;;;14.60;95.60;;;;;;5054488;28;20084;-70
2023/01/14 05:22:18;;;;;;;12.90;2.83;;;14.70;94.90;;;;;;5055774;28;20037;-72
2023/01/14 05:24:44;;;;;;;10.18;2.70;;;14.40;95.50;;;;;;5055797;28;20501;-71
2023/01/14 05:27:10;;;;;;;7.90;2.10;;;;;;;;;;5055494;28;20048;-62
2023/01/14 05:29:38;;;;;;;10.05;2.17;;;14.50;94.60;;;;;;5053573;28;20049;-71
2023/01/14 05:32:04;;;;;;;12.18;2.47;;;14.60;95.50;;;;;;5044374;28;20049;-70
2023/01/14 05:34:30;;;;;;;8.45;2.30;;;;;;;;;;5054109;28;20061;-71
2023/01/14 05:36:57;;;;;;;8.57;2.10;;;;;;;;;;5053434;28;20081;-71
2023/01/14 05:39:23;;;;;;;11.50;2.22;;;14.40;95.40;;;;;;5055503;28;20045;-70
2023/01/14 05:47:22;;;;;;;11.93;2.58;;;;;;;;;;5054913;28;20049;-71
2023/01/14 05:49:48;;;;;;;12.13;3.30;;;14.30;95.30;;;;;;5043168;28;20076;-72
2023/01/14 05:52:13;;;;;;;11.35;2.30;;;14.40;95.30;;;;;;5054992;28;20072;-71
2023/01/14 05:54:39;;;;;;;12.07;2.47;;;;;;;;;;5053417;28;20091;-70
2023/01/14 05:57:11;;;;;;;10.77;2.70;;;14.30;94.00;;;;;;5055006;28;20052;-70
2023/01/14 05:59:37;;;;;;;8.90;2.47;;;14.40;94.10;;;;;;5053546;28;20056;-70
2023/01/14 06:07:31;;;;;;;9.00;2.72;;;14.20;95.20;;;;;;5050895;28;20391;-70
2023/01/14 06:09:57;;;;;;;10.38;2.60;;;14.30;95.20;;;;;;5041278;28;20037;-72
2023/01/14 06:13:24;;;;;;;10.40;2.50;;;;;;;;;;5054827;28;20045;-70
2023/01/14 06:15:18;;;;;;;11.70;2.50;;;14.50;95.20;;;;;;5041944;28;20510;-72
2023/01/14 06:17:46;;;;;;;11.05;2.53;;;14.10;95.10;;;;;;5035560;28;20077;-69
2023/01/14 06:20:12;;;;;;;12.13;2.53;;;14.30;95.20;;;;;;5054665;28;20052;-71
2023/01/14 06:22:38;;;;;;;8.13;2.20;;;14.30;95.20;;;;;;5053055;28;20049;-71
2023/01/14 06:25:04;;;;;;;8.50;2.03;;;14.00;93.90;;;;;;5054366;28;20052;-70
2023/01/14 06:27:31;;;;;;;9.65;2.47;;;14.20;95.10;;;;;;5037988;28;20638;-71
2023/01/14 06:29:56;;;;;;;8.25;2.40;;;14.40;95.20;;;;;;5046524;28;20049;-71
2023/01/14 06:32:22;;;;;;;11.82;2.30;;;13.90;95.00;;;;;;5054641;28;20206;-71
2023/01/14 06:34:48;;;;;;;10.20;2.50;;;14.40;95.20;;;;;;5054322;28;20053;-72
2023/01/14 06:37:14;;;;;;;13.18;2.78;;;14.30;95.10;;;;;;5047084;28;20076;-71
2023/01/14 06:39:40;;;;;;;11.55;2.92;;;;;;;;;;5047746;28;20036;-71
2023/01/14 06:42:06;;;;;;;9.45;2.45;;;14.30;95.10;;;;;;5054023;28;20053;-71
2023/01/14 06:44:31;;;;;;;8.65;2.20;;;14.30;95.10;;;;;;5054069;28;20067;-72
2023/01/14 06:46:58;;;;;;;9.02;2.45;;;;;;;;;;5052038;28;20073;-70
2023/01/14 06:49:23;;;;;;;9.95;2.63;;;14.40;95.10;;;;;;5054525;28;20481;-71
2023/01/14 06:51:49;;;;;;;11.32;2.50;;;;;;;;;;5054049;28;20112;-71
2023/01/14 06:54:15;;;;;;;9.95;2.88;;;14.30;95.00;;;;;;5053028;28;20490;-71
2023/01/14 06:56:42;;;;;;;9.80;3.30;;;14.60;95.10;;;;;;5037103;28;20046;-71
2023/01/14 06:59:08;;;;;;;13.57;3.33;;;14.30;95.00;;;;;;5050971;28;20049;-70
2023/01/14 07:01:34;;;;;;;9.45;3.13;;;14.30;95.20;;;;;;5047391;28;20771;-72
2023/01/14 07:04:00;;;;;;;16.88;4.00;;;14.10;94.90;;;;;;5054323;28;20041;-71
2023/01/14 07:06:26;;;;;;;16.40;3.58;;;14.30;95.00;;;;;;5053687;28;20459;-71
2023/01/14 07:08:51;;;;;;;15.30;4.35;;;14.20;94.90;;;;;;5052382;28;20049;-71
2023/01/14 07:11:17;;;;;;;12.98;3.95;;;14.10;94.90;;;;;;5038645;28;20095;-71
2023/01/14 07:13:43;;;;;;;13.25;3.92;;;14.20;94.90;;;;;;5034522;28;20045;-71
2023/01/14 07:16:09;;;;;;;12.63;3.38;;;14.00;94.80;;;;;;5053221;28;20175;-71
2023/01/14 07:18:34;;;;;;;16.40;4.10;;;14.20;94.90;;;;;;5052270;28;20045;-70
2023/01/14 07:21:00;;;;;;;15.13;3.38;;;;;;;;;;5053190;28;20045;-70
2023/01/14 07:23:27;;;;;;;13.20;3.80;;;;;;;;;;5048835;28;20116;-70
2023/01/14 07:25:55;;;;;;;12.73;3.90;;;14.10;94.80;;;;;;5053160;28;20053;-70
2023/01/14 07:28:23;;;;;;;17.52;4.05;;;14.30;94.90;;;;;;5045868;28;20529;-71
2023/01/14 07:30:49;;;;;;;12.98;4.07;;;;;;;;;;5033930;28;20372;-69
2023/01/14 07:33:15;;;;;;;12.15;3.50;;;14.20;94.90;;;;;;5053676;28;20045;-70
2023/01/14 07:35:40;;;;;;;12.52;3.45;;;14.10;93.60;;;;;;5051430;28;20068;-71
2023/01/14 07:38:10;;;;;;;10.57;3.33;;;14.10;94.80;;;;;;5057508;28;20041;-75
2023/01/14 07:40:39;;;;;;;14.43;3.97;;;14.10;92.70;;;;;;5035884;28;20091;-74
2023/01/14 07:43:07;;;;;;;14.45;4.55;;;;;;;;;;5036820;28;20060;-75
2023/01/14 07:45:33;;;;;;;13.98;3.95;;;14.00;94.70;;;;;;5034473;28;20057;-70
2023/01/14 07:47:59;;;;;;;14.10;3.95;;;;;;;;;;5032925;28;20045;-72
2023/01/14 07:50:25;;;;;;;11.60;3.65;;;;;;;;;;5053265;28;20491;-70
2023/01/14 07:52:55;;;;;;;13.02;3.63;;;14.30;93.50;;;;;;5053565;28;20041;-71
2023/01/14 07:55:21;;;;;;;15.55;4.03;;;14.20;94.70;;;;;;5046328;28;20112;-70
2023/01/14 07:57:47;;;;;;;14.32;4.25;;;;;;;;;;5049020;28;20037;-70
2023/01/14 08:00:14;;;;;;;15.10;4.32;;;14.00;94.50;;;;;;5050859;28;20056;-71
2023/01/14 08:02:40;;;;;;;15.70;4.13;;;14.10;94.60;;;;;;5052238;28;20045;-71
2023/01/14 08:05:06;;;;;;;14.75;3.55;;;14.00;94.60;;;;;;5052940;28;20063;-70
2023/01/14 08:07:32;;;;;;;15.50;4.25;;;13.90;94.60;;;;;;5053457;28;20055;-71
2023/01/14 08:09:58;;;;;;;14.88;4.25;;;13.90;94.70;;;;;;5053322;28;20037;-72
2023/01/14 08:12:24;;;;;;;16.00;4.03;;;;;;;;;;5051110;28;20509;-68
2023/01/14 08:14:50;;;;;;;12.43;4.07;;;13.70;94.60;;;;;;5048783;28;20403;-72
2023/01/14 08:17:16;;;;;;;14.32;4.03;;;13.90;94.70;;;;;;5047438;28;20041;-72
2023/01/14 08:19:43;;;;;;;15.88;4.32;;;13.90;94.70;;;;;;5053134;28;20041;-70
2023/01/14 08:22:09;;;;;;;14.15;4.38;;;13.90;94.70;;;;;;5052211;28;20061;-65
2023/01/14 08:24:35;;;;;;;16.02;4.00;;;13.90;94.70;;;;;;5051100;28;20044;-71
2023/01/14 08:27:04;;;;;;;14.43;4.35;;;13.80;92.90;;;;;;5049816;28;20098;-70
2023/01/14 08:29:30;;;;;;;14.98;4.13;;;13.60;94.60;;;;;;5036168;28;20042;-71
2023/01/14 08:31:56;;;;;;;13.20;3.95;;;13.80;94.80;;;;;;5052179;28;20040;-71
2023/01/14 08:34:22;;;;;;;14.50;4.68;;;13.90;94.70;;;;;;5056214;28;20053;-71
2023/01/14 08:36:49;;;;;;;17.80;4.03;;;13.90;94.70;;;;;;5055534;28;20056;-71
2023/01/14 08:39:15;;;;;;;14.02;4.60;;;14.00;93.10;;;;;;5052278;28;20503;-71
2023/01/14 08:41:42;;;;;;;13.48;3.80;;;13.70;94.80;;;;;;5036610;28;20422;-70
2023/01/14 08:44:08;;;;;;;16.77;4.63;;;13.90;94.70;;;;;;5040874;28;20394;-72
2023/01/14 08:46:34;;;;;;;13.13;3.28;;;13.90;94.70;;;;;;5055830;28;20048;-71
2023/01/14 08:48:59;;;;;;;13.23;3.63;;;13.70;94.70;;;;;;5039902;28;20079;-72
2023/01/14 08:51:26;;;;;;;17.10;4.30;;;13.90;94.80;;;;;;5036266;28;20499;-70
2023/01/14 08:53:55;;;;;;;15.93;4.30;;;13.90;94.70;;;;;;5036741;28;20053;-70
2023/01/14 08:56:21;;;;;;;14.93;3.60;;;13.90;94.70;;;;;;5039392;28;20053;-71
2023/01/14 08:58:47;;;;;;;13.60;3.70;;;14.00;94.70;;;;;;5045013;28;20048;-71
2023/01/14 09:01:14;;;;;;;13.13;3.40;;;13.90;94.60;;;;;;5039494;28;20045;-70
2023/01/14 09:03:41;;;;;;;14.52;4.03;;;13.90;94.60;;;;;;5056172;28;20049;-71
2023/01/14 09:06:11;;;;;;;18.00;4.95;;;13.70;93.30;;;;;;5054001;28;20049;-68
2023/01/14 09:17:06;;;;;;;13.27;4.35;;;13.80;94.80;;;;;;5054151;28;20142;-71
2023/01/14 09:19:51;;;;;;;20.40;4.13;;;13.70;94.80;;;;;;5014931;28;20103;-70
2023/01/14 09:22:18;;;;;;;16.90;4.00;;;;;;;;;;5055113;28;20124;-70
2023/01/14 09:24:44;;;;;;;14.40;3.58;;;13.60;94.80;;;;;;5055475;28;20045;-70
2023/01/14 09:27:10;;;;;;;14.23;3.40;;;13.60;94.80;;;;;;5054234;28;20064;-71
2023/01/14 09:29:36;;;;;;;14.65;3.90;;;;;;;;;;5054497;28;20502;-72
2023/01/14 09:32:02;;;;;;;15.85;3.80;;;;;;;;;;5054437;28;20099;-69
2023/01/14 09:34:28;;;;;;;12.60;3.55;;;13.90;93.80;;;;;;5038873;28;20431;-69
2023/01/14 09:36:54;;;;;;;15.63;3.47;;;13.80;95.00;;;;;;5035416;28;20053;-68
2023/01/14 09:39:20;;;;;;;15.43;4.07;;;13.90;95.00;;;;;;5039834;28;20041;-69
2023/01/14 09:41:53;;;;;;;19.50;3.67;;;13.80;93.60;;;;;;5050662;28;20049;-68
2023/01/14 09:44:19;;;;;;;10.18;2.83;;;;;;;;;;5053214;28;20076;-71
2023/01/14 09:46:45;;;;;;;13.15;3.33;;;13.70;94.80;;;;;;5051129;28;20683;-69
2023/01/14 09:49:12;;;;;;;13.35;3.50;;;;;;;;;;5039656;28;20045;-69
2023/01/14 09:51:52;;;;;;;14.63;3.20;;;13.80;93.00;;;;;;5042567;28;20037;-69
2023/01/14 09:54:33;;;;;;;10.68;3.75;;;13.80;93.10;;;;;;5052988;28;20041;-69
2023/01/14 09:57:00;;;;;;;14.52;3.60;;;;;;;;;;5053891;28;20402;-71
2023/01/14 09:59:32;;;;;;;12.60;3.13;;;;;;;;;;5052652;28;20041;-69
2023/01/14 10:02:09;;;;;;;9.65;3.22;;;13.60;93.00;;;;;;5034576;28;20128;-70
2023/01/14 10:04:53;;;;;;;11.93;3.15;;;13.80;93.10;;;;;;5051292;28;20049;-71
2023/01/14 10:07:19;;;;;;;13.18;2.92;;;13.70;95.00;;;;;;5054047;28;20059;-69
2023/01/14 10:09:51;;;;;;;10.50;2.67;;;13.70;93.60;;;;;;5052656;28;20049;-69
2023/01/14 10:12:19;;;;;;;11.15;2.63;;;14.00;95.10;;;;;;5033066;28;20045;-71
2023/01/14 10:14:53;;;;;;;11.50;3.30;;;13.70;94.80;;;;;;5033695;28;20057;-71
2023/01/14 10:17:20;;;;;;;10.82;3.03;;;13.70;93.70;;;;;;5041786;28;20037;-73
2023/01/14 10:19:50;;;;;;;8.82;2.90;;;13.50;93.80;;;;;;5038282;28;20049;-70
2023/01/14 10:22:21;;;;;;;13.20;3.45;;;;;;;;;;5043006;28;20394;-69
2023/01/14 10:24:47;;;;;;;15.82;3.50;;;;;;;;;;5043335;28;20045;-68
2023/01/14 10:27:17;;;;;;;10.45;2.58;;;13.70;93.70;;;;;;5049051;28;20047;-69
2023/01/14 10:29:43;;;;;;;15.05;2.72;;;13.70;95.00;;;;;;5040005;28;20060;-70
2023/01/14 10:32:14;;;;;;;13.90;3.05;;;13.50;93.70;;;;;;5033120;28;20049;-67
2023/01/14 10:34:46;;;;;;;13.20;2.92;;;13.70;93.10;;;;;;5021546;28;20621;-68
2023/01/14 10:37:13;;;;;;;11.02;2.70;;;;;;;;;;5052875;28;20410;-70
2023/01/14 10:39:50;;;;;;;14.32;2.95;;;;;;;;;;5048462;28;20045;-73
2023/01/14 10:42:23;;;;;;;10.48;3.13;;;13.90;95.20;;;;;;5033638;28;20046;-74
2023/01/14 10:44:49;;;;;;;12.55;3.03;;;13.60;95.10;;;;;;5037805;28;20513;-73
2023/01/14 10:47:18;;;;;;;10.18;2.60;;;;;;;;;;5051501;28;20049;-73
2023/01/14 10:49:52;;;;;;;9.10;2.80;;;13.30;93.60;;;;;;5046652;28;20037;-69
2023/01/14 10:52:32;;;;;;;6.55;3.00;;;13.20;93.30;;;;;;5049723;28;20442;-61
2023/01/14 10:55:02;;;;;;;9.77;3.03;;;13.20;95.40;;;;;;5033285;28;20053;-69
2023/01/14 10:57:32;;;;;;;11.23;3.38;;;;;;;;;;5033479;28;20045;-70
2023/01/14 10:59:58;;;;;;;10.63;2.63;;;13.10;94.80;;;;;;5032633;28;20053;-67
2023/01/14 11:02:36;;;;;;;8.90;2.47;;;13.00;93.80;;;;;;5031943;28;20111;-63
2023/01/14 11:05:07;;;;;;;7.43;2.65;;;13.20;94.40;;;;;;5049935;28;20402;-59
2023/01/14 11:07:34;;;;;;;8.43;2.65;;;;;;;;;;5045675;28;20038;-63
2023/01/14 11:10:15;;;;;;;7.97;2.30;;;13.10;96.00;;;;;;5032317;28;20049;-68
2023/01/14 11:12:40;;;;;;;7.65;2.20;;;13.10;95.80;;;;;;5049040;28;20041;-62
2023/01/14 11:15:29;;;;;;;11.18;2.55;;;13.00;95.80;;;;;;5045975;28;20473;-63
2023/01/14 11:17:55;;;;;;;6.70;2.05;;;13.30;95.90;;;;;;5041249;28;20053;-68
2023/01/14 11:20:24;;;;;;;7.63;2.58;;;13.20;94.40;;;;;;5034374;28;20518;-59
2023/01/14 11:23:00;;;;;;;7.78;2.53;;;13.30;95.90;;;;;;5033511;28;20053;-70
2023/01/14 11:25:26;;;;;;;7.25;2.67;;;13.30;95.90;;;;;;5039096;28;20458;-63
2023/01/14 11:27:52;;;;;;;7.53;2.17;;;13.30;95.90;;;;;;5032460;28;20046;-66
2023/01/14 11:30:18;;;;;;;6.43;1.77;;;13.40;95.90;;;;;;5039587;28;20521;-63
2023/01/14 11:32:48;;;;;;;7.38;1.90;;;13.20;96.00;;;;;;5050406;28;20083;-62
2023/01/14 11:35:33;;;;;;;8.65;2.13;;;13.20;94.80;;;;;;5041213;28;20057;-65
2023/01/14 11:37:59;;;;;;;7.10;2.17;;;13.30;96.10;;;;;;5032114;28;20511;-68
2023/01/14 11:43:22;;;;;;;6.25;1.95;;;13.00;96.10;;;;;;5052416;28;20402;-69
2023/01/14 11:46:10;;;;;;;6.15;2.00;;;;;;;;;;5050073;28;20564;-70
2023/01/14 11:48:36;;;;;;;12.40;4.68;;;13.30;96.20;;;;;;5028539;28;20134;-61
2023/01/14 11:51:03;;;;;;;9.48;3.45;;;13.60;96.30;;;;;;5049561;28;20048;-68
2023/01/14 11:53:49;;;;;;;11.07;4.60;;;13.20;94.60;;;;;;5033126;28;20116;-60
2023/01/14 11:56:38;;;;;;;12.27;3.70;;;13.30;94.50;;;;;;5032614;28;20458;-67
2023/01/14 11:59:23;;;;;;;9.05;3.47;;;;;;;;;;5052641;28;20128;-69
2023/01/14 12:01:52;;;;;;;8.43;3.15;;;13.20;96.40;;;;;;5051562;28;20048;-68
2023/01/14 12:04:20;;;;;;;7.57;2.50;;;13.10;96.60;;;;;;5023546;28;20045;-59
2023/01/14 12:07:01;;;;;;;7.85;2.85;;;13.40;94.50;;;;;;5033964;28;20052;-71
2023/01/14 12:09:31;;;;;;;6.95;2.20;;;13.30;96.50;;;;;;5057412;28;20041;-70
2023/01/14 12:12:22;;;;;;;8.27;2.50;;;13.10;95.30;;;;;;5055861;28;20049;-60
2023/01/14 12:17:50;;;;;;;7.05;2.42;;;13.30;96.50;;;;;;5052306;28;20045;-61
2023/01/14 12:20:20;;;;;;;4.38;1.90;;;13.30;96.50;;;;;;5036266;28;20102;-60
2023/01/14 12:22:56;;;;;;;5.10;1.90;;;13.30;96.60;;;;;;5035814;28;20045;-69
2023/01/14 12:25:28;;;;;;;5.68;2.33;;;13.20;96.60;;;;;;5035412;28;20395;-69
2023/01/14 12:27:57;;;;;;;6.07;1.80;;;;;;;;;;5054367;28;20110;-70
2023/01/14 12:30:33;;;;;;;5.15;1.73;;;13.30;95.40;;;;;;5038116;28;20379;-72
2023/01/14 12:33:03;;;;;;;4.55;1.77;;;;;;;;;;5035365;28;20052;-73
2023/01/14 12:35:35;;;;;;;4.35;1.52;;;13.30;95.40;;;;;;5034934;28;20132;-60
2023/01/14 12:38:02;;;;;;;6.55;2.10;;;;;;;;;;5019708;28;20134;-70
2023/01/14 12:46:11;;;;;;;4.70;1.30;;;13.10;96.90;;;;;;5035385;28;20042;-64
2023/01/14 12:48:37;;;;;;;4.10;1.48;;;13.30;96.00;;;;;;5046310;28;20116;-62
2023/01/14 12:51:07;;;;;;;6.00;1.70;;;;;;;;;;5055001;28;20487;-72
2023/01/14 12:53:46;;;;;;;5.60;1.67;;;13.40;95.90;;;;;;5047731;28;20053;-63
2023/01/14 12:56:19;;;;;;;3.45;1.30;;;12.80;95.80;;;;;;5054379;28;20048;-65
2023/01/14 12:58:51;;;;;;;4.53;1.35;;;;;;;;;;5050892;28;20071;-69
2023/01/14 13:01:21;;;;;;;4.75;1.58;;;;;;;;;;5055083;28;20045;-69
2023/01/14 13:04:01;;;;;;;5.72;1.88;;;;;;;;;;5055623;28;20041;-69
2023/01/14 13:06:35;;;;;;;3.92;1.30;;;13.50;97.40;;;;;;5054397;28;20045;-72
2023/01/14 13:09:02;;;;;;;3.85;1.55;;;12.80;95.50;;;;;;5068726;28;20037;-67
2023/01/14 13:11:45;;;;;;;2.47;1.25;;;;;;;;;;5036839;28;20060;-73
2023/01/14 13:14:25;;;;;;;6.65;1.85;;;13.00;96.30;;;;;;5048036;28;20044;-62
2023/01/14 13:16:52;;;;;;;6.95;1.60;;;;;;;;;;5037741;28;20037;-61
2023/01/14 13:19:37;;;;;;;3.00;1.20;;;13.10;95.70;;;;;;5049992;28;20059;-60
2023/01/14 13:22:09;;;;;;;5.10;1.40;;;13.10;97.70;;;;;;5054753;28;20441;-61
2023/01/14 13:24:43;;;;;;;2.92;1.20;;;13.00;97.80;;;;;;5055567;28;20402;-61
2023/01/14 13:27:38;;;;;;;3.72;1.30;;;13.00;96.70;;;;;;5055211;28;20045;-59
2023/01/14 13:30:20;;;;;;;4.13;1.40;;;12.90;96.10;;;;;;5049472;28;20073;-58
2023/01/14 13:33:03;;;;;;;4.40;1.60;;;13.00;96.00;;;;;;5035073;28;20077;-68
2023/01/14 13:35:30;;;;;;;4.90;1.38;;;13.10;98.10;;;;;;5055023;28;20466;-70
2023/01/14 13:37:57;;;;;;;3.00;1.15;;;;;;;;;;5052930;28;21445;-73
2023/01/14 13:40:24;;;;;;;3.20;1.38;;;13.00;96.70;;;;;;5040090;28;20041;-62
2023/01/14 13:43:01;;;;;;;3.47;1.58;;;;;;;;;;5051976;28;20182;-66
2023/01/14 13:45:27;;;;;;;3.13;1.10;;;13.00;98.20;;;;;;5051547;28;20049;-63
2023/01/14 13:47:53;;;;;;;3.42;1.10;;;;;;;;;;5055040;28;20382;-72
2023/01/14 13:50:23;;;;;;;1.65;0.82;;;;;;;;;;5034740;28;20113;-72
2023/01/14 13:52:56;;;;;;;2.85;1.20;;;;;;;;;;5036645;28;20041;-72
2023/01/14 13:55:26;;;;;;;2.60;1.00;;;;;;;;;;5033847;28;20055;-72
2023/01/14 13:57:55;;;;;;;3.38;1.35;;;;;;;;;;5034896;28;20053;-73